Time;durP1;ratioP1;P1;durP2;ratioP2;P2;SDS_P1;SDS_P2;PMS_P1;PMS_P2;Temp;Humidity;BMP_temperature;BMP_pressure;BME280_temperature;BME280_humidity;BME280_pressure;Samples;Min_cycle;Max_cycle;Signal;HPM_P1;HPM_P2
2021/12/18 00:01:53;;;;;;;0.22;0.22;;;;;;;11.46;69.28;104202.22;5047952;28;20033;-82
2021/12/18 00:04:19;;;;;;;0.10;0.10;;;;;;;11.46;69.29;104202.22;5048104;28;20033;-83
2021/12/18 00:06:46;;;;;;;0.10;0.10;;;;;;;11.46;69.33;104203.16;5055798;28;20025;-82
2021/12/18 00:09:12;;;;;;;0.00;0.00;;;;;;;11.45;69.17;104192.44;5050093;28;20371;-83
2021/12/18 00:11:38;;;;;;;0.10;0.10;;;;;;;11.46;69.00;104194.25;5053823;28;20029;-83
2021/12/18 00:14:05;;;;;;;0.10;0.10;;;;;;;11.38;69.32;104195.81;5049711;28;20057;-81
2021/12/18 00:16:31;;;;;;;0.22;0.22;;;;;;;11.42;68.91;104197.69;5048427;28;20392;-80
2021/12/18 00:18:58;;;;;;;0.40;0.40;;;;;;;11.41;69.22;104207.38;5050905;28;20467;-81
2021/12/18 00:21:25;;;;;;;1.13;1.02;;;;;;;11.41;69.15;104198.53;5076562;27;20074;-82
2021/12/18 00:23:52;;;;;;;0.10;0.10;;;;;;;11.39;69.36;104186.97;5049816;28;20030;-82
2021/12/18 00:26:19;;;;;;;0.10;0.10;;;;;;;11.39;69.54;104187.88;5071516;27;20374;-82
2021/12/18 00:28:47;;;;;;;0.10;0.10;;;;;;;11.36;69.51;104182.44;5042352;27;20055;-82
2021/12/18 00:31:13;;;;;;;0.10;0.10;;;;;;;11.37;69.57;104186.03;5043289;28;20127;-82
2021/12/18 00:33:39;;;;;;;0.10;0.10;;;;;;;11.38;69.70;104174.56;5032770;28;20044;-82
2021/12/18 00:36:06;;;;;;;0.10;0.10;;;;;;;11.39;69.81;104176.34;5033971;28;20065;-82
2021/12/18 00:38:32;;;;;;;0.10;0.10;;;;;;;11.37;69.53;104168.34;5035710;28;20025;-82
2021/12/18 00:41:11;;;;;;;0.17;0.17;;;;;;;11.37;69.38;104170.09;5033016;27;20447;-82
2021/12/18 00:44:01;;;;;;;0.10;0.10;;;;;;;11.39;69.69;104168.38;5033773;28;20079;-82
2021/12/18 00:46:25;;;;;;;0.30;0.30;;;;;;;11.39;69.63;104171.94;5038038;28;20484;-82
2021/12/18 00:48:52;;;;;;;0.13;0.13;;;;;;;11.42;69.46;104173.78;5037824;28;20082;-82
2021/12/18 00:51:18;;;;;;;0.10;0.10;;;;;;;11.44;69.45;104180.03;5037504;28;20499;-82
2021/12/18 00:53:44;;;;;;;0.10;0.10;;;;;;;11.44;69.25;104169.41;5036830;28;20432;-82
2021/12/18 00:56:10;;;;;;;0.10;0.10;;;;;;;11.44;69.86;104169.41;5032939;28;20030;-83
2021/12/18 00:58:37;;;;;;;0.10;0.10;;;;;;;11.46;69.96;104163.31;5033213;28;20397;-83
2021/12/18 01:01:08;;;;;;;0.03;0.03;;;;;;;11.47;69.53;104159.78;5035887;28;20108;-83
2021/12/18 01:03:35;;;;;;;0.10;0.10;;;;;;;11.49;69.35;104167.81;5036262;28;20025;-82
2021/12/18 01:06:02;;;;;;;0.10;0.10;;;;;;;11.51;69.47;104160.78;5038244;28;20169;-81
2021/12/18 01:08:28;;;;;;;0.15;0.15;;;;;;;11.50;69.70;104174.91;5033962;28;20029;-82
2021/12/18 01:11:30;;;;;;;0.10;0.10;;;;;;;11.49;69.43;104178.44;5039706;28;20573;-82
2021/12/18 01:13:57;;;;;;;0.10;0.10;;;;;;;11.47;69.68;104164.19;5035140;28;20093;-81
2021/12/18 01:16:26;;;;;;;0.47;0.47;;;;;;;11.46;69.20;104171.28;5034065;28;20034;-81
2021/12/18 01:24:25;;;;;;;0.10;0.10;;;;;;;11.46;69.30;104175.66;5035589;28;20062;-82
2021/12/18 01:26:51;;;;;;;0.73;0.73;;;;;;;11.47;69.43;104177.47;5039569;28;20037;-82
2021/12/18 01:29:17;;;;;;;0.10;0.10;;;;;;;11.45;69.54;104173.88;5035372;28;20029;-82
2021/12/18 01:31:43;;;;;;;0.30;0.20;;;;;;;11.47;69.53;104181.03;5036500;28;20017;-82
2021/12/18 01:34:09;;;;;;;0.10;0.10;;;;;;;11.45;69.70;104176.53;5033903;28;20026;-81
2021/12/18 01:36:36;;;;;;;0.28;0.28;;;;;;;11.43;69.13;104179.13;5033562;28;20482;-81
2021/12/18 01:39:04;;;;;;;0.10;0.10;;;;;;;11.46;69.10;104178.31;5035256;28;20029;-81
2021/12/18 01:41:47;;;;;;;0.10;0.10;;;;;;;11.46;69.61;104179.25;5034360;28;20449;-81
2021/12/18 01:44:46;;;;;;;0.10;0.10;;;;;;;11.47;69.81;104174.81;5036525;28;20060;-81
2021/12/18 01:51:12;;;;;;;0.10;0.10;;;;;;;11.48;69.73;104181.94;5036608;28;20033;-82
2021/12/18 01:52:33;;;;;;;0.10;0.10;;;;;;;11.46;69.21;104179.25;5032482;28;20491;-82
2021/12/18 01:54:59;;;;;;;0.10;0.10;;;;;;;11.46;69.17;104181.91;5035497;28;20017;-82
2021/12/18 01:57:25;;;;;;;0.10;0.10;;;;;;;11.47;69.41;104188.97;5082217;27;20038;-82
2021/12/18 01:59:52;;;;;;;0.10;0.10;;;;;;;11.46;69.57;104181.91;5091226;27;20098;-82
2021/12/18 02:02:20;;;;;;;0.10;0.10;;;;;;;11.46;69.65;104183.63;5113910;27;20028;-82
2021/12/18 02:04:47;;;;;;;0.10;0.10;;;;;;;11.46;69.22;104173.00;5067055;27;20025;-82
2021/12/18 02:07:14;;;;;;;0.20;0.20;;;;;;;11.43;69.46;104168.50;5112839;27;20029;-82
2021/12/18 02:13:02;;;;;;;0.10;0.10;;;;;;;11.53;69.17;104161.72;5051291;27;20040;-81
2021/12/18 02:21:12;;;;;;;0.13;0.13;;;;;;;11.37;69.10;104148.84;5035827;28;20032;-81
2021/12/18 02:23:40;;;;;;;0.10;0.10;;;;;;;11.38;69.55;104153.31;5090235;27;20034;-82
2021/12/18 02:26:07;;;;;;;0.10;0.10;;;;;;;11.38;69.53;104143.59;5082799;27;20051;-82
2021/12/18 02:28:34;;;;;;;0.10;0.10;;;;;;;11.38;69.34;104143.59;5121731;27;20038;-81
2021/12/18 02:31:01;;;;;;;0.22;0.22;;;;;;;11.40;69.86;104140.97;5035200;28;20025;-82
2021/12/18 02:33:28;;;;;;;0.17;0.17;;;;;;;11.37;69.36;104144.44;5083226;27;20609;-82
2021/12/18 02:35:58;;;;;;;0.08;0.08;;;;;;;11.40;69.28;104138.31;5089011;27;20502;-81
2021/12/18 02:38:45;;;;;;;0.10;0.10;;;;;;;11.44;69.32;104142.84;5115911;27;20031;-82
2021/12/18 02:41:45;;;;;;;0.10;0.10;;;;;;;11.41;69.26;104148.97;5037332;28;20033;-82
2021/12/18 02:44:04;;;;;;;0.10;0.10;;;;;;;11.38;69.46;104135.63;5100568;27;20043;-82
2021/12/18 02:46:31;;;;;;;0.10;0.10;;;;;;;11.39;69.52;104140.09;5067307;27;20033;-82
2021/12/18 02:49:03;;;;;;;1.00;1.00;;;;;;;11.41;69.70;104142.78;5121520;27;20131;-81
2021/12/18 02:51:30;;;;;;;0.15;0.15;;;;;;;11.40;69.15;104135.66;5082176;27;20027;-82
2021/12/18 02:54:10;;;;;;;0.10;0.10;;;;;;;11.45;69.45;104128.72;5087477;27;20410;-80
2021/12/18 02:56:43;;;;;;;0.10;0.10;;;;;;;11.42;68.98;104124.22;5120770;27;20027;-80
2021/12/18 02:59:18;;;;;;;0.10;0.10;;;;;;;11.42;69.58;104129.53;5072384;27;20027;-80
2021/12/18 03:01:52;;;;;;;0.03;0.03;;;;;;;11.42;69.54;104139.28;5094259;27;20491;-80
2021/12/18 03:04:25;;;;;;;0.15;0.15;;;;;;;11.39;69.56;104133.84;5111764;27;20108;-82
2021/12/18 03:06:57;;;;;;;0.20;0.20;;;;;;;11.39;69.36;104128.53;5065496;28;20025;-82
2021/12/18 03:19:08;;;;;;;0.10;0.10;;;;;;;11.36;69.10;104139.97;5068074;28;20048;-82
2021/12/18 03:21:36;;;;;;;0.15;0.15;;;;;;;11.75;67.94;104141.09;5056372;28;20044;-82
2021/12/18 03:25:59;;;;;;;0.10;0.10;;;;;;;11.78;68.02;104141.19;5059926;28;20030;-82
2021/12/18 03:28:26;;;;;;;0.75;0.75;;;;;;;11.75;67.32;104147.31;5066624;28;20020;-82
2021/12/18 03:30:52;;;;;;;0.10;0.10;;;;;;;11.76;67.64;104146.47;5056666;28;20025;-82
2021/12/18 03:33:19;;;;;;;0.10;0.10;;;;;;;11.77;67.69;104144.69;5061609;28;20516;-81
2021/12/18 03:35:46;;;;;;;0.10;0.10;;;;;;;11.77;67.81;104142.03;5060822;28;20025;-82
2021/12/18 03:38:12;;;;;;;0.65;0.65;;;;;;;11.70;67.40;104138.31;5058110;28;20033;-82
2021/12/18 03:40:39;;;;;;;0.10;0.10;;;;;;;11.70;67.85;104132.09;5067840;28;20051;-81
2021/12/18 03:43:05;;;;;;;0.10;0.10;;;;;;;11.68;67.67;104134.72;5054993;28;20021;-82
2021/12/18 03:45:31;;;;;;;0.10;0.10;;;;;;;11.67;67.54;104132.00;5062625;28;20029;-82
2021/12/18 03:47:57;;;;;;;0.10;0.10;;;;;;;11.69;67.41;104130.28;5062306;28;20029;-82
2021/12/18 03:50:24;;;;;;;0.10;0.10;;;;;;;11.69;68.14;104123.22;5055972;28;20112;-82
2021/12/18 03:52:50;;;;;;;0.10;0.10;;;;;;;11.69;67.43;104123.22;5067674;28;20036;-81
2021/12/18 03:55:17;;;;;;;0.10;0.10;;;;;;;11.69;67.54;104117.00;5063297;28;20031;-82
2021/12/18 03:57:43;;;;;;;0.10;0.10;;;;;;;11.70;67.55;104116.16;5059646;28;20022;-82
2021/12/18 04:00:13;;;;;;;0.20;0.20;;;;;;;11.74;67.94;104126.00;5063984;28;20037;-82
2021/12/18 04:02:40;;;;;;;0.10;0.10;;;;;;;11.71;67.79;104115.28;5054619;28;20027;-82
2021/12/18 04:05:07;;;;;;;0.10;0.10;;;;;;;11.72;67.95;104122.41;5066536;28;20026;-81
2021/12/18 04:07:40;;;;;;;3.33;0.88;;;;;;;11.71;68.02;104117.94;5059048;28;20013;-82
2021/12/18 04:10:09;;;;;;;0.10;0.10;;;;;;;11.72;68.08;104122.41;5058011;28;20039;-82
2021/12/18 04:12:35;;;;;;;0.10;0.10;;;;;;;11.73;68.08;104126.88;5066385;28;20021;-82
2021/12/18 04:15:02;;;;;;;0.10;0.10;;;;;;;11.70;67.43;104121.47;5054676;28;20028;-82
2021/12/18 04:17:29;;;;;;;0.10;0.10;;;;;;;11.67;67.43;104122.28;5062501;28;20018;-81
2021/12/18 04:19:55;;;;;;;0.10;0.10;;;;;;;11.62;67.62;104124.78;5061617;28;20032;-82
2021/12/18 04:22:21;;;;;;;0.10;0.10;;;;;;;11.59;67.34;104122.06;5047998;28;20591;-81
2021/12/18 04:24:48;;;;;;;2.92;0.85;;;;;;;11.56;67.41;104121.97;5053002;28;20357;-82
2021/12/18 04:27:14;;;;;;;0.10;0.10;;;;;;;11.49;67.49;104131.53;5041981;28;20025;-82
2021/12/18 04:29:40;;;;;;;0.10;0.10;;;;;;;11.52;67.53;104125.41;5046451;28;20033;-81
2021/12/18 04:32:07;;;;;;;0.28;0.28;;;;;;;11.53;67.36;104135.16;5049666;28;20396;-82
2021/12/18 04:34:33;;;;;;;0.20;0.20;;;;;;;11.50;67.88;104137.72;5040678;28;20026;-82
2021/12/18 04:37:00;;;;;;;0.08;0.08;;;;;;;11.49;67.52;104135.94;5040417;28;20025;-82
2021/12/18 04:39:26;;;;;;;0.10;0.10;;;;;;;11.39;68.01;104131.19;5048962;28;20022;-82
2021/12/18 04:41:57;;;;;;;0.10;0.10;;;;;;;11.38;68.19;104132.09;5047447;28;20025;-82
2021/12/18 04:44:24;;;;;;;0.10;0.10;;;;;;;11.35;68.20;104126.66;5041940;28;20473;-82
2021/12/18 04:46:50;;;;;;;0.10;0.10;;;;;;;11.33;68.22;104135.47;5053883;28;20476;-82
2021/12/18 04:49:16;;;;;;;0.10;0.10;;;;;;;11.29;68.09;104148.59;5041818;28;20086;-81
2021/12/18 04:51:43;;;;;;;0.17;0.17;;;;;;;11.25;67.79;104146.72;5045767;28;20036;-81
2021/12/18 04:54:10;;;;;;;0.15;0.15;;;;;;;11.16;67.62;104147.34;5043668;28;20026;-83
2021/12/18 04:56:36;;;;;;;0.35;0.35;;;;;;;11.10;67.85;104147.16;5053007;28;20025;-81
2021/12/18 04:59:04;;;;;;;0.10;0.10;;;;;;;11.08;67.67;104148.84;5040747;28;20423;-81
2021/12/18 05:01:36;;;;;;;0.10;0.10;;;;;;;11.00;68.12;104146.88;5052050;28;20024;-82
2021/12/18 05:04:04;;;;;;;1.77;0.80;;;;;;;11.00;68.12;104152.19;5036983;28;20054;-82
2021/12/18 05:06:31;;;;;;;0.10;0.10;;;;;;;10.75;68.59;104158.44;5052683;28;20401;-81
2021/12/18 05:08:57;;;;;;;0.10;0.10;;;;;;;10.57;69.15;104158.75;5039280;28;20068;-81
2021/12/18 05:11:23;;;;;;;0.10;0.10;;;;;;;10.51;69.54;104162.09;5049953;28;20041;-81
2021/12/18 05:13:49;;;;;;;0.10;0.10;;;;;;;10.52;69.70;104168.31;5046735;28;20057;-81
2021/12/18 05:16:16;;;;;;;0.10;0.10;;;;;;;10.50;69.68;104168.25;5044094;28;20025;-81
2021/12/18 05:18:42;;;;;;;0.10;0.10;;;;;;;10.48;69.29;104169.03;5040727;28;20025;-82
2021/12/18 05:21:08;;;;;;;0.10;0.10;;;;;;;10.44;69.28;104169.78;5038214;28;20071;-83
2021/12/18 05:23:34;;;;;;;0.65;0.65;;;;;;;10.40;69.23;104168.78;5041735;28;20034;-82
2021/12/18 05:26:00;;;;;;;0.10;0.10;;;;;;;10.32;69.03;104171.13;5042458;28;20029;-82
2021/12/18 05:28:26;;;;;;;0.10;0.10;;;;;;;10.40;69.45;104175.84;5037947;28;20489;-82
2021/12/18 05:30:52;;;;;;;0.10;0.10;;;;;;;10.38;69.48;104167.84;5051665;28;20084;-81
2021/12/18 05:33:18;;;;;;;0.20;0.20;;;;;;;10.35;69.44;104168.59;5038800;28;20090;-82
2021/12/18 05:35:44;;;;;;;0.10;0.10;;;;;;;10.37;69.41;104168.69;5045786;28;20111;-82
2021/12/18 05:38:10;;;;;;;0.20;0.20;;;;;;;10.34;69.32;104168.53;5040929;28;20091;-82
2021/12/18 05:40:38;;;;;;;0.10;0.10;;;;;;;10.34;69.68;104164.16;5052374;28;20091;-81
2021/12/18 05:43:05;;;;;;;0.10;0.10;;;;;;;10.32;69.31;104168.47;5041159;28;20033;-82
2021/12/18 05:45:31;;;;;;;0.10;0.10;;;;;;;10.29;69.51;104159.53;5049788;28;20033;-82
2021/12/18 05:47:58;;;;;;;0.10;0.10;;;;;;;10.25;69.31;104163.81;5035829;28;20112;-82
2021/12/18 05:50:27;;;;;;;0.10;0.10;;;;;;;10.20;68.87;104165.41;5050484;28;20029;-82
2021/12/18 05:52:55;;;;;;;0.10;0.10;;;;;;;10.17;69.28;104166.19;5049921;28;20376;-81
2021/12/18 05:55:24;;;;;;;0.10;0.10;;;;;;;10.11;69.17;104160.69;5046573;28;20491;-81
2021/12/18 05:57:51;;;;;;;0.10;0.10;;;;;;;10.02;68.88;104160.38;5033995;28;20032;-82
2021/12/18 06:00:18;;;;;;;0.10;0.10;;;;;;;9.97;68.65;104159.28;5050937;28;20033;-82
2021/12/18 06:02:44;;;;;;;0.10;0.10;;;;;;;9.95;68.77;104163.66;5038190;28;20079;-82
2021/12/18 06:05:10;;;;;;;0.10;0.10;;;;;;;9.93;68.93;104150.34;5048202;28;20473;-81
2021/12/18 06:07:52;;;;;;;0.10;0.10;;;;;;;9.87;68.82;104151.03;5044868;28;20040;-81
2021/12/18 06:10:19;;;;;;;0.10;0.10;;;;;;;9.84;68.77;104155.31;5039843;28;20072;-81
2021/12/18 06:12:45;;;;;;;0.20;0.20;;;;;;;9.81;69.12;104156.09;5051808;28;20048;-82
2021/12/18 06:15:11;;;;;;;0.20;0.20;;;;;;;9.79;69.24;104149.81;5042086;28;20033;-81
2021/12/18 06:17:37;;;;;;;0.10;0.10;;;;;;;9.80;69.12;104154.28;5046481;28;20029;-81
2021/12/18 06:20:04;;;;;;;0.10;0.10;;;;;;;9.79;69.00;104151.59;5041228;28;20087;-82
2021/12/18 06:22:30;;;;;;;0.10;0.10;;;;;;;9.78;69.10;104149.78;5051257;28;20100;-82
2021/12/18 06:24:56;;;;;;;0.10;0.10;;;;;;;9.76;69.10;104151.47;5039235;28;20040;-82
2021/12/18 06:27:22;;;;;;;0.10;0.10;;;;;;;9.74;68.78;104153.16;5046337;28;20064;-82
2021/12/18 06:29:49;;;;;;;0.10;0.10;;;;;;;9.67;68.66;104146.72;5046176;28;20108;-81
2021/12/18 06:32:15;;;;;;;0.10;0.10;;;;;;;9.61;68.25;104158.00;5039660;28;20459;-81
2021/12/18 06:34:41;;;;;;;0.13;0.13;;;;;;;9.63;68.78;104158.97;5050889;28;20107;-82
2021/12/18 06:37:07;;;;;;;0.20;0.20;;;;;;;9.61;68.54;104160.66;5040333;28;20464;-81
2021/12/18 06:39:33;;;;;;;0.20;0.20;;;;;;;9.56;68.15;104156.94;5044923;28;20061;-82
2021/12/18 06:42:00;;;;;;;0.10;0.10;;;;;;;9.51;68.60;104169.09;5048026;28;20025;-81
2021/12/18 06:44:28;;;;;;;0.10;0.10;;;;;;;9.46;68.64;104165.34;5037680;28;20030;-81
2021/12/18 06:46:56;;;;;;;0.10;0.10;;;;;;;9.42;68.53;104155.50;5050918;28;20042;-81
2021/12/18 06:49:22;;;;;;;0.10;0.10;;;;;;;9.37;67.97;104163.25;5042827;28;20029;-82
2021/12/18 06:51:48;;;;;;;0.10;0.10;;;;;;;9.36;67.76;104161.47;5042179;28;20037;-82
2021/12/18 06:54:15;;;;;;;0.10;0.10;;;;;;;9.35;68.71;104165.84;5049414;28;20457;-82
2021/12/18 06:56:41;;;;;;;0.15;0.15;;;;;;;9.33;68.32;104159.63;5038108;28;20029;-81
2021/12/18 06:59:07;;;;;;;0.10;0.10;;;;;;;9.32;69.38;104160.47;5048599;28;20021;-82
2021/12/18 07:01:33;;;;;;;0.10;0.10;;;;;;;9.31;68.45;104155.09;5043153;28;20029;-81
2021/12/18 07:03:59;;;;;;;0.10;0.10;;;;;;;9.30;68.24;104155.94;5041064;28;20033;-82
2021/12/18 07:06:25;;;;;;;0.10;0.10;;;;;;;9.30;68.56;104162.13;5036541;28;20119;-82
2021/12/18 07:08:51;;;;;;;0.10;0.10;;;;;;;9.26;68.55;104168.16;5050867;28;20033;-81
2021/12/18 07:11:17;;;;;;;0.10;0.10;;;;;;;9.30;68.45;104166.53;5052456;28;20499;-82
2021/12/18 07:13:44;;;;;;;0.10;0.10;;;;;;;9.31;69.03;104169.22;5047895;28;20471;-80
2021/12/18 07:16:10;;;;;;;0.10;0.10;;;;;;;9.28;68.63;104178.78;5043846;28;20041;-81
2021/12/18 07:18:42;;;;;;;0.10;0.10;;;;;;;9.29;68.34;104176.19;5050465;28;20033;-81
2021/12/18 07:21:11;;;;;;;0.10;0.10;;;;;;;9.30;68.78;104170.06;5038753;28;20030;-81
2021/12/18 07:23:38;;;;;;;0.10;0.10;;;;;;;9.26;69.00;104165.50;5047399;28;20392;-81
2021/12/18 07:26:04;;;;;;;0.10;0.10;;;;;;;9.23;68.73;104168.03;5043153;28;20029;-79
2021/12/18 07:28:30;;;;;;;0.10;0.10;;;;;;;9.24;69.04;104164.53;5043711;28;20029;-80
2021/12/18 07:30:56;;;;;;;0.10;0.10;;;;;;;9.26;68.81;104165.50;5042163;28;20546;-81
2021/12/18 07:33:22;;;;;;;0.10;0.10;;;;;;;9.27;69.26;104169.97;5046116;28;20040;-81
2021/12/18 07:35:49;;;;;;;0.10;0.10;;;;;;;9.27;69.10;104172.63;5042894;28;20025;-81
2021/12/18 07:38:16;;;;;;;0.10;0.10;;;;;;;9.25;68.43;104168.09;5043918;28;20041;-82
2021/12/18 07:40:42;;;;;;;0.10;0.10;;;;;;;9.21;68.52;104167.97;5034045;28;20040;-81
2021/12/18 07:43:08;;;;;;;0.10;0.10;;;;;;;9.23;68.85;104161.00;5040214;28;20105;-81
2021/12/18 07:45:35;;;;;;;0.10;0.10;;;;;;;9.21;68.70;104165.31;5041065;28;20116;-80
2021/12/18 07:48:02;;;;;;;0.10;0.10;;;;;;;9.20;69.14;104170.56;5038653;28;20025;-81
2021/12/18 07:50:28;;;;;;;0.10;0.10;;;;;;;9.19;68.93;104166.09;5042649;28;20029;-81
2021/12/18 07:52:55;;;;;;;0.10;0.10;;;;;;;9.14;68.86;104167.66;5036322;28;20041;-80
2021/12/18 07:55:21;;;;;;;0.20;0.20;;;;;;;9.09;68.38;104171.88;5036517;28;20013;-81
2021/12/18 07:57:50;;;;;;;0.10;0.10;;;;;;;9.07;68.87;104180.66;5039009;28;20460;-82
2021/12/18 08:00:18;;;;;;;0.20;0.20;;;;;;;9.12;68.48;104178.19;5038984;28;20025;-81
2021/12/18 08:02:44;;;;;;;0.10;0.10;;;;;;;9.14;69.17;104172.97;5046558;28;20060;-82
2021/12/18 08:05:10;;;;;;;0.00;0.00;;;;;;;9.10;68.53;104178.94;5047450;28;20034;-82
2021/12/18 08:07:36;;;;;;;0.10;0.10;;;;;;;9.10;68.73;104177.22;5046217;28;20025;-81
2021/12/18 08:10:05;;;;;;;0.10;0.10;;;;;;;9.09;69.04;104171.88;5038453;28;20075;-81
2021/12/18 08:12:31;;;;;;;0.10;0.10;;;;;;;9.08;68.49;104181.53;5037820;28;20111;-81
2021/12/18 08:14:58;;;;;;;0.20;0.20;;;;;;;9.07;68.83;104180.66;5048734;28;20037;-81
2021/12/18 08:17:24;;;;;;;0.10;0.10;;;;;;;9.10;68.58;104181.59;5039867;28;20021;-81
2021/12/18 08:19:51;;;;;;;0.17;0.17;;;;;;;9.14;68.87;104176.50;5039908;28;20041;-77
2021/12/18 08:22:17;;;;;;;0.10;0.10;;;;;;;9.13;69.07;104172.03;5050353;28;20029;-81
2021/12/18 08:24:43;;;;;;;0.15;0.15;;;;;;;9.17;69.11;104170.44;5046237;28;20087;-82
2021/12/18 08:27:09;;;;;;;0.20;0.20;;;;;;;9.18;68.62;104169.59;5043244;28;20391;-82
2021/12/18 08:29:35;;;;;;;0.10;0.10;;;;;;;9.18;68.29;104177.53;5044999;28;20033;-81
2021/12/18 08:32:02;;;;;;;0.10;0.10;;;;;;;9.20;68.32;104184.69;5039250;28;20033;-82
2021/12/18 08:34:28;;;;;;;0.10;0.10;;;;;;;9.22;68.68;104185.66;5036325;28;20025;-82
2021/12/18 08:36:54;;;;;;;1.45;1.40;;;;;;;9.25;68.71;104181.34;5044316;28;20085;-82
2021/12/18 08:39:21;;;;;;;0.10;0.10;;;;;;;9.25;68.73;104181.34;5044275;28;20061;-82
2021/12/18 08:41:47;;;;;;;0.10;0.10;;;;;;;9.28;69.05;104182.31;5040983;28;20033;-82
2021/12/18 08:44:15;;;;;;;0.10;0.10;;;;;;;9.25;68.25;104181.34;5040424;28;20088;-82
2021/12/18 08:46:42;;;;;;;0.10;0.10;;;;;;;9.28;68.85;104177.03;5037544;28;20026;-83
2021/12/18 08:49:08;;;;;;;0.10;0.10;;;;;;;9.27;68.47;104183.19;5038199;28;20025;-82
2021/12/18 08:51:37;;;;;;;0.10;0.10;;;;;;;9.27;68.43;104183.19;5039366;28;20030;-81
2021/12/18 08:54:05;;;;;;;0.10;0.10;;;;;;;9.28;69.15;104178.78;5036476;28;20312;-81
2021/12/18 08:56:31;;;;;;;0.10;0.10;;;;;;;9.28;68.97;104177.03;5036408;28;20025;-82
2021/12/18 08:59:00;;;;;;;0.10;0.10;;;;;;;9.46;68.09;104178.59;5047852;28;20127;-83
2021/12/18 09:01:27;;;;;;;0.10;0.10;;;;;;;9.66;67.42;104188.19;5039692;28;20021;-82
2021/12/18 09:03:53;;;;;;;8.27;1.05;;;;;;;9.70;67.06;104182.16;5052699;28;20124;-82
2021/12/18 09:06:21;;;;;;;0.10;0.10;;;;;;;9.78;67.34;104186.84;5053675;28;20412;-81
2021/12/18 09:08:47;;;;;;;0.10;0.10;;;;;;;9.78;66.71;104176.25;5051209;28;20029;-81
2021/12/18 09:11:14;;;;;;;0.68;0.68;;;;;;;9.81;67.54;104177.28;5041621;28;20047;-82
2021/12/18 09:13:40;;;;;;;0.10;0.10;;;;;;;9.48;67.83;104176.91;5049211;28;20033;-85
2021/12/18 09:16:06;;;;;;;0.13;0.13;;;;;;;9.36;68.47;104175.59;5041747;28;20102;-79
2021/12/18 09:18:33;;;;;;;0.10;0.10;;;;;;;9.33;67.96;104178.16;5042897;28;20024;-78
2021/12/18 09:21:03;;;;;;;0.17;0.17;;;;;;;9.32;68.30;104184.28;5040776;28;20080;-82
2021/12/18 09:23:29;;;;;;;1.95;0.95;;;;;;;9.35;68.58;104183.50;5038825;28;20043;-81
2021/12/18 09:25:55;;;;;;;0.10;0.10;;;;;;;9.34;68.44;104174.63;5035495;28;20475;-81
2021/12/18 09:28:21;;;;;;;0.10;0.10;;;;;;;9.37;68.25;104180.06;5047913;28;20029;-80
2021/12/18 09:30:48;;;;;;;0.10;0.10;;;;;;;9.38;68.41;104171.28;5046615;28;20032;-81
2021/12/18 09:33:18;;;;;;;0.10;0.10;;;;;;;9.46;68.88;104175.94;5050915;28;20095;-80
2021/12/18 09:35:47;;;;;;;0.10;0.10;;;;;;;9.51;68.38;104177.94;5034416;28;20545;-82
2021/12/18 09:38:13;;;;;;;0.10;0.10;;;;;;;9.54;68.40;104171.84;5047160;28;20035;-81
2021/12/18 09:40:40;;;;;;;0.10;0.10;;;;;;;9.53;67.77;104175.34;5045041;28;20100;-80
2021/12/18 09:43:06;;;;;;;0.10;0.10;;;;;;;9.48;67.38;104171.63;5041931;28;20156;-81
2021/12/18 09:45:32;;;;;;;0.10;0.10;;;;;;;9.46;67.46;104168.91;5042007;28;20125;-81
2021/12/18 09:47:59;;;;;;;0.10;0.10;;;;;;;9.44;67.37;104167.94;5043484;28;20029;-79
2021/12/18 09:50:28;;;;;;;0.10;0.10;;;;;;;9.51;67.33;104169.09;5042476;28;20085;-81
2021/12/18 09:52:54;;;;;;;0.20;0.20;;;;;;;9.53;68.01;104170.03;5037964;28;20095;-82
2021/12/18 09:55:21;;;;;;;0.10;0.10;;;;;;;9.57;68.21;104169.34;5034294;28;20029;-81
2021/12/18 09:57:49;;;;;;;0.63;0.63;;;;;;;9.62;68.41;104165.13;5044927;28;20030;-80
2021/12/18 10:00:19;;;;;;;0.10;0.10;;;;;;;9.64;67.62;104166.06;5041866;28;20025;-80
2021/12/18 10:02:45;;;;;;;0.10;0.10;;;;;;;9.69;68.11;104177.75;5043919;28;20025;-81
2021/12/18 10:11:09;;;;;;;0.57;0.57;;;;;;;9.79;68.22;104165.72;5081569;28;20430;-81
2021/12/18 10:13:57;;;;;;;1.10;1.05;;;;;;;9.79;67.66;104162.19;5069277;28;20102;-82
2021/12/18 10:16:29;;;;;;;0.10;0.10;;;;;;;9.77;68.14;104162.13;5043180;28;20040;-83
2021/12/18 10:19:10;;;;;;;0.10;0.10;;;;;;;9.79;68.21;104167.47;5043610;28;20064;-83
2021/12/18 10:21:36;;;;;;;0.10;0.10;;;;;;;9.77;68.09;104163.84;5040506;28;20037;-82
2021/12/18 10:24:18;;;;;;;0.10;0.10;;;;;;;9.82;67.68;104159.63;5048000;28;20622;-83
2021/12/18 10:26:45;;;;;;;0.10;0.10;;;;;;;9.81;68.22;104155.19;5042198;28;20021;-83
2021/12/18 10:29:34;;;;;;;0.10;0.10;;;;;;;9.91;68.04;104154.69;5038831;28;20040;-87
2021/12/18 10:32:08;;;;;;;0.10;0.10;;;;;;;9.87;67.55;104160.72;5041309;28;20036;-81
2021/12/18 10:34:35;;;;;;;0.10;0.10;;;;;;;9.84;67.68;104156.22;5044238;28;20029;-82
2021/12/18 10:37:29;;;;;;;0.25;0.25;;;;;;;9.91;67.95;104157.34;5040979;28;20032;-81
2021/12/18 10:45:25;;;;;;;0.10;0.10;;;;;;;9.98;67.47;104151.41;5048133;28;20463;-81
2021/12/18 10:50:51;;;;;;;0.17;0.17;;;;;;;10.06;67.94;104151.69;5077845;27;20429;-80
2021/12/18 10:53:23;;;;;;;0.20;0.20;;;;;;;10.09;67.86;104150.88;5058765;28;20022;-80
2021/12/18 10:55:53;;;;;;;0.30;0.30;;;;;;;10.04;67.16;104151.63;5060824;28;20055;-82
2021/12/18 10:58:29;;;;;;;0.75;0.75;;;;;;;10.09;67.35;104150.88;5061960;28;20036;-83
2021/12/18 11:01:14;;;;;;;0.10;0.10;;;;;;;10.12;66.93;104158.94;5061367;28;20076;-80
2021/12/18 11:09:04;;;;;;;0.10;0.10;;;;;;;10.08;67.13;104143.78;5075190;27;20418;-81
2021/12/18 11:14:20;;;;;;;0.10;0.10;;;;;;;9.99;67.39;104149.66;5076713;27;20858;-80
2021/12/18 11:16:49;;;;;;;0.10;0.10;;;;;;;9.90;67.81;104155.53;5048669;28;20028;-77
2021/12/18 11:19:18;;;;;;;0.10;0.10;;;;;;;9.91;67.78;104151.16;5045811;28;20116;-80
2021/12/18 11:21:48;;;;;;;0.10;0.10;;;;;;;9.91;67.78;104146.75;5045415;28;20029;-80
2021/12/18 11:24:16;;;;;;;0.10;0.10;;;;;;;9.92;67.68;104143.25;5044636;28;20052;-80
2021/12/18 11:27:04;;;;;;;0.10;0.10;;;;;;;9.93;67.23;104142.41;5046849;28;20048;-80
2021/12/18 11:29:44;;;;;;;0.10;0.10;;;;;;;9.91;67.78;104138.78;5043838;28;20038;-80
2021/12/18 11:32:15;;;;;;;0.10;0.10;;;;;;;9.90;67.77;104144.03;5044532;28;20041;-82
2021/12/18 11:34:43;;;;;;;0.20;0.20;;;;;;;9.85;67.43;104133.28;5044877;28;20044;-80
2021/12/18 11:37:12;;;;;;;0.10;0.10;;;;;;;9.87;67.69;104134.25;5042339;28;20532;-82
2021/12/18 11:39:40;;;;;;;0.10;0.10;;;;;;;9.93;67.81;104123.88;5042944;28;20029;-81
2021/12/18 11:42:09;;;;;;;0.10;0.10;;;;;;;9.98;67.93;104126.66;5048373;28;20407;-81
2021/12/18 11:53:08;;;;;;;0.10;0.10;;;;;;;10.11;67.79;104112.09;5077357;27;20386;-80
2021/12/18 11:58:40;;;;;;;0.10;0.10;;;;;;;10.04;67.12;104106.59;5054105;28;20151;-81
2021/12/18 12:01:25;;;;;;;0.10;0.10;;;;;;;10.10;67.27;104107.66;5033510;28;20105;-82
2021/12/18 12:06:41;;;;;;;0.10;0.10;;;;;;;10.09;66.90;104103.19;5033959;28;20464;-81
2021/12/18 12:09:21;;;;;;;0.10;0.10;;;;;;;10.18;67.28;104103.50;5030851;28;20030;-81
2021/12/18 12:14:32;;;;;;;0.10;0.10;;;;;;;10.20;67.21;104109.75;5060408;28;20417;-80
2021/12/18 12:19:49;;;;;;;0.10;0.10;;;;;;;10.25;67.30;104100.22;5111532;27;20400;-82
2021/12/18 12:25:19;;;;;;;0.10;0.10;;;;;;;10.31;67.25;104089.81;5085894;27;20415;-79
2021/12/18 12:27:58;;;;;;;0.10;0.10;;;;;;;10.30;67.11;104093.31;5071683;28;20108;-81
2021/12/18 12:30:47;;;;;;;0.10;0.10;;;;;;;10.35;66.80;104088.16;5071136;28;20128;-80
2021/12/18 12:33:23;;;;;;;0.10;0.10;;;;;;;10.32;67.07;104075.72;5071711;28;20503;-81
2021/12/18 12:38:56;;;;;;;0.10;0.10;;;;;;;10.41;67.22;104079.56;5112882;27;20395;-81
2021/12/18 12:44:16;;;;;;;0.10;0.10;;;;;;;10.40;67.27;104073.34;5078667;27;20411;-81
2021/12/18 12:46:44;;;;;;;0.10;0.10;;;;;;;10.38;67.19;104063.53;5052498;28;20527;-82
2021/12/18 12:49:16;;;;;;;0.10;0.10;;;;;;;10.35;66.76;104067.88;5052388;28;20033;-82
2021/12/18 12:52:10;;;;;;;0.20;0.20;;;;;;;10.44;67.46;104071.69;5051845;28;20029;-81
2021/12/18 12:57:47;;;;;;;0.10;0.10;;;;;;;10.20;66.89;104068.28;5071762;28;20056;-81
2021/12/18 13:02:58;;;;;;;0.10;0.10;;;;;;;10.09;66.62;104055.50;5112602;27;20399;-82